Welcome to Des Moines Iowa Weather. I am an independent private personal weather station on the Northwest Side of Des Moines, Iowa. Just East of Windsor Heights and just West of Glendale . This site is also mobile friendly.

There are no active watches, warnings or advisories


Visit our other weather sites:

Historical Data

Weather Station Setup



Weather Underground History page Text

Daily Summary for March 8, 2018 Units:  Metric    English   Both
« Previous Day
Next Day »
Daily Weekly Monthly Yearly Custom
  High: Low: Average:
Temperature: 0.7 °C -8.1 °C -3.8 °C
Dew Point: -5.8 °C -10.1 °C -7.7 °C
Humidity: 87 % 60 % 75 %
Wind Speed: 17.7 km/h 0 km/h 2.7 km/h
Wind Gust: 25.7 km/h - -
Wind:- - NW
Pressure: 1024.9 hPa 1018.5 hPa -
Precipitation: 0 mm    
Historical Graphs
 
 
Tabular Data for March 8, 2018
Time Temperature Dew Point Pressure Wind Wind Speed Wind Gust Humidity Rainfall Rate (Hourly)
00:00 -5.4 °C -7.4 °C 1023.2 hPa Calm   8 km/h 86 % 0 mm
00:05 -5.6 °C -7.2 °C 1023.9 hPa NNW 12.9 km/h 12.9 km/h 87 % 0 mm
00:10 -5.6 °C -7.4 °C 1023.2 hPa Calm   6.4 km/h 87 % 0 mm
00:15 -5.6 °C -7.4 °C 1023.2 hPa Calm   6.4 km/h 87 % 0 mm
00:20 -5.8 °C -7.8 °C 1023.9 hPa Calm   8 km/h 87 % 0 mm
00:25 -5.7 °C -7.5 °C 1022.9 hPa Calm   12.9 km/h 87 % 0 mm
00:30 -5.7 °C -7.5 °C 1022.9 hPa Calm   12.9 km/h 87 % 0 mm
00:35 -5.8 °C -7.8 °C 1023.9 hPa Calm   8 km/h 87 % 0 mm
00:40 -5.8 °C -7.7 °C 1022.9 hPa North 1.6 km/h 12.9 km/h 87 % 0 mm
00:45 -5.8 °C -7.7 °C 1022.9 hPa North 1.6 km/h 12.9 km/h 87 % 0 mm
00:50 -5.8 °C -7.8 °C 1023.9 hPa NW 1.6 km/h 6.4 km/h 87 % 0 mm
00:55 -5.8 °C -7.7 °C 1022.9 hPa Calm   8 km/h 87 % 0 mm
01:00 -5.8 °C -7.7 °C 1022.9 hPa Calm   8 km/h 87 % 0 mm
01:05 -6 °C -7.8 °C 1023.9 hPa Calm     87 % 0 mm
01:10 -5.9 °C -7.8 °C 1022.9 hPa Calm   4.8 km/h 87 % 0 mm
01:15 -5.9 °C -7.8 °C 1022.9 hPa Calm   4.8 km/h 87 % 0 mm
01:20 -6.2 °C -7.8 °C 1023.9 hPa Calm     87 % 0 mm
01:25 -6.2 °C -8 °C 1022.9 hPa Calm     87 % 0 mm
01:30 -6.2 °C -8 °C 1022.9 hPa Calm     87 % 0 mm
01:35 -6.3 °C -8.3 °C 1023.9 hPa Calm     87 % 0 mm
01:40 -6.3 °C -8.1 °C 1022.9 hPa Calm   3.2 km/h 87 % 0 mm
01:45 -6.3 °C -8.1 °C 1022.9 hPa Calm   3.2 km/h 87 % 0 mm
01:50 -6.3 °C -8.1 °C 1022.9 hPa Calm   3.2 km/h 87 % 0 mm
01:51 -6.5 °C -8.3 °C 1023.9 hPa Calm   8 km/h 87 % 0 mm
01:55 -6.5 °C -8.3 °C 1022.9 hPa Calm   8 km/h 87 % 0 mm
02:00 -6.5 °C -8.3 °C 1022.9 hPa Calm   8 km/h 87 % 0 mm
02:05 -6.5 °C -8.3 °C 1022.9 hPa Calm   8 km/h 87 % 0 mm
02:06 -6.6 °C -8.3 °C 1023.9 hPa NW 1.6 km/h 6.4 km/h 87 % 0 mm
02:10 -6.6 °C -8.3 °C 1022.9 hPa Calm   8 km/h 87 % 0 mm
02:15 -6.6 °C -8.3 °C 1022.9 hPa Calm   8 km/h 87 % 0 mm
02:20 -6.6 °C -8.3 °C 1022.9 hPa Calm   8 km/h 87 % 0 mm
02:21 -6.5 °C -8.3 °C 1023.9 hPa NW 3.2 km/h 12.9 km/h 87 % 0 mm
02:25 -6.5 °C -8.3 °C 1022.9 hPa NW 3.2 km/h 20.9 km/h 87 % 0 mm
02:30 -6.5 °C -8.3 °C 1022.9 hPa NW 3.2 km/h 20.9 km/h 87 % 0 mm
02:35 -6.5 °C -8.3 °C 1022.9 hPa NW 3.2 km/h 20.9 km/h 87 % 0 mm
02:36 -6.3 °C -8.3 °C 1023.6 hPa WNW 1.6 km/h 17.7 km/h 85 % 0 mm
02:40 -6.3 °C -8.2 °C 1022.6 hPa NW 6.4 km/h 20.9 km/h 86 % 0 mm
02:45 -6.3 °C -8.2 °C 1022.6 hPa NW 6.4 km/h 20.9 km/h 86 % 0 mm
02:50 -6.3 °C -8.2 °C 1022.6 hPa NW 6.4 km/h 20.9 km/h 86 % 0 mm
02:51 -6.2 °C -8.3 °C 1023.6 hPa NW 6.4 km/h 12.9 km/h 84 % 0 mm
02:55 -6.2 °C -8.5 °C 1022.6 hPa NW 4.8 km/h 16.1 km/h 84 % 0 mm
03:00 -6.2 °C -8.5 °C 1022.6 hPa NW 4.8 km/h 16.1 km/h 84 % 0 mm
03:05 -6.2 °C -8.5 °C 1022.6 hPa NW 4.8 km/h 16.1 km/h 84 % 0 mm
03:06 -6.2 °C -8.3 °C 1023.9 hPa WNW 6.4 km/h 9.7 km/h 83 % 0 mm
03:10 -6.2 °C -8.6 °C 1022.6 hPa NW 4.8 km/h 14.5 km/h 83 % 0 mm
03:15 -6.2 °C -8.6 °C 1022.6 hPa NW 4.8 km/h 14.5 km/h 83 % 0 mm
03:20 -6.2 °C -8.6 °C 1022.6 hPa NW 4.8 km/h 14.5 km/h 83 % 0 mm
03:21 -6.3 °C -8.9 °C 1023.6 hPa West 4.8 km/h 9.7 km/h 83 % 0 mm
03:25 -6.2 °C -8.6 °C 1022.6 hPa NW 1.6 km/h 11.3 km/h 83 % 0 mm
03:30 -6.2 °C -8.6 °C 1022.6 hPa NW 1.6 km/h 11.3 km/h 83 % 0 mm
03:35 -6.2 °C -8.6 °C 1022.6 hPa NW 1.6 km/h 11.3 km/h 83 % 0 mm
03:36 -6.4 °C -8.9 °C 1023.9 hPa NW 1.6 km/h 6.4 km/h 83 % 0 mm
03:40 -6.4 °C -8.8 °C 1022.9 hPa NW 3.2 km/h 12.9 km/h 83 % 0 mm
03:45 -6.4 °C -8.8 °C 1022.9 hPa NW 3.2 km/h 12.9 km/h 83 % 0 mm
03:50 -6.4 °C -8.8 °C 1022.9 hPa NW 3.2 km/h 12.9 km/h 83 % 0 mm
03:51 -6.6 °C -8.9 °C 1023.9 hPa Calm   8 km/h 83 % 0 mm
03:55 -6.6 °C -8.9 °C 1022.9 hPa NW 3.2 km/h 9.7 km/h 83 % 0 mm
04:00 -6.6 °C -8.9 °C 1022.9 hPa NW 3.2 km/h 9.7 km/h 83 % 0 mm
04:05 -6.6 °C -8.9 °C 1022.9 hPa NW 3.2 km/h 9.7 km/h 83 % 0 mm
04:06 -6.8 °C -9.4 °C 1023.9 hPa NW 4.8 km/h 9.7 km/h 83 % 0 mm
04:10 -6.8 °C -9.2 °C 1022.6 hPa NNW 1.6 km/h 12.9 km/h 83 % 0 mm
04:15 -6.8 °C -9.2 °C 1022.6 hPa NNW 1.6 km/h 12.9 km/h 83 % 0 mm
04:20 -6.8 °C -9.2 °C 1022.6 hPa NNW 1.6 km/h 12.9 km/h 83 % 0 mm
04:21 -6.9 °C -9.4 °C 1024.3 hPa NW 1.6 km/h 6.4 km/h 83 % 0 mm
04:25 -6.9 °C -9.3 °C 1022.9 hPa NW 1.6 km/h 6.4 km/h 83 % 0 mm
04:30 -6.9 °C -9.3 °C 1022.9 hPa NW 1.6 km/h 6.4 km/h 83 % 0 mm
04:35 -6.9 °C -9.3 °C 1022.9 hPa NW 1.6 km/h 6.4 km/h 83 % 0 mm
04:36 -7.1 °C -9.4 °C 1024.3 hPa Calm   4.8 km/h 83 % 0 mm
04:40 -7.1 °C -9.4 °C 1023.2 hPa NNW 3.2 km/h 8 km/h 83 % 0 mm
04:45 -7.1 °C -9.4 °C 1023.2 hPa NNW 3.2 km/h 8 km/h 83 % 0 mm
04:50 -7.1 °C -9.4 °C 1023.2 hPa NNW 3.2 km/h 8 km/h 83 % 0 mm
04:51 -7.2 °C -9.4 °C 1024.3 hPa NW 1.6 km/h 12.9 km/h 84 % 0 mm
04:55 -7.2 °C -9.4 °C 1023.2 hPa NW 3.2 km/h 14.5 km/h 84 % 0 mm
05:00 -7.2 °C -9.4 °C 1023.2 hPa NW 3.2 km/h 14.5 km/h 84 % 0 mm
05:05 -7.2 °C -9.4 °C 1023.2 hPa NW 3.2 km/h 14.5 km/h 84 % 0 mm
05:06 -7.3 °C -9.4 °C 1024.6 hPa West 3.2 km/h 9.7 km/h 84 % 0 mm
05:10 -7.3 °C -9.5 °C 1023.2 hPa NNW 1.6 km/h 9.7 km/h 84 % 0 mm
05:15 -7.3 °C -9.5 °C 1023.2 hPa NNW 1.6 km/h 9.7 km/h 84 % 0 mm
05:20 -7.3 °C -9.5 °C 1023.2 hPa NNW 1.6 km/h 9.7 km/h 84 % 0 mm
05:21 -7.4 °C -9.4 °C 1024.3 hPa NW 1.6 km/h 8 km/h 84 % 0 mm
05:25 -7.4 °C -9.6 °C 1023.2 hPa NW 3.2 km/h 11.3 km/h 84 % 0 mm
05:30 -7.4 °C -9.6 °C 1023.2 hPa NW 3.2 km/h 11.3 km/h 84 % 0 mm
05:35 -7.4 °C -9.6 °C 1023.2 hPa NW 3.2 km/h 11.3 km/h 84 % 0 mm
05:36 -7.5 °C -9.4 °C 1024.3 hPa Calm   6.4 km/h 84 % 0 mm
05:40 -7.5 °C -9.7 °C 1023.2 hPa NW 1.6 km/h 12.9 km/h 84 % 0 mm
05:45 -7.5 °C -9.7 °C 1023.2 hPa NW 1.6 km/h 12.9 km/h 84 % 0 mm
05:50 -7.5 °C -9.7 °C 1023.2 hPa NW 1.6 km/h 12.9 km/h 84 % 0 mm
05:51 -7.6 °C -10 °C 1024.3 hPa NW 3.2 km/h 12.9 km/h 84 % 0 mm
05:55 -7.6 °C -9.8 °C 1023.2 hPa NW 1.6 km/h 14.5 km/h 84 % 0 mm
06:00 -7.6 °C -9.8 °C 1023.2 hPa NW 1.6 km/h 14.5 km/h 84 % 0 mm
06:05 -7.6 °C -9.8 °C 1023.2 hPa NW 1.6 km/h 14.5 km/h 84 % 0 mm
06:06 -7.7 °C -10 °C 1024.3 hPa Calm   6.4 km/h 84 % 0 mm
06:10 -7.7 °C -9.9 °C 1023.2 hPa NW 1.6 km/h 8 km/h 84 % 0 mm
06:15 -7.7 °C -9.9 °C 1023.2 hPa NW 1.6 km/h 8 km/h 84 % 0 mm
06:20 -7.7 °C -9.9 °C 1023.2 hPa NW 1.6 km/h 8 km/h 84 % 0 mm
06:21 -7.8 °C -10 °C 1024.3 hPa NW 3.2 km/h 4.8 km/h 84 % 0 mm
06:25 -7.8 °C -10.1 °C 1023.2 hPa Calm   4.8 km/h 84 % 0 mm
06:30 -7.8 °C -10.1 °C 1023.2 hPa Calm   4.8 km/h 84 % 0 mm
06:35 -7.8 °C -10.1 °C 1023.2 hPa Calm   4.8 km/h 84 % 0 mm
06:36 -7.9 °C -10 °C 1024.6 hPa Calm   8 km/h 85 % 0 mm
06:40 -7.9 °C -10 °C 1023.2 hPa NW 1.6 km/h 8 km/h 85 % 0 mm
06:45 -7.9 °C -10 °C 1023.2 hPa NW 1.6 km/h 8 km/h 85 % 0 mm
06:50 -7.9 °C -10 °C 1023.2 hPa NW 1.6 km/h 8 km/h 85 % 0 mm
06:51 -8 °C -10 °C 1024.6 hPa Calm   3.2 km/h 85 % 0 mm
06:55 -8 °C -10.1 °C 1023.6 hPa NW 1.6 km/h 6.4 km/h 85 % 0 mm
07:00 -8 °C -10.1 °C 1023.6 hPa NW 1.6 km/h 6.4 km/h 85 % 0 mm
07:05 -8 °C -10.1 °C 1023.6 hPa NW 1.6 km/h 6.4 km/h 85 % 0 mm
07:06 -8.1 °C -10 °C 1024.6 hPa Calm   9.7 km/h 85 % 0 mm
07:10 -8.1 °C -10.1 °C 1023.6 hPa NW 1.6 km/h 14.5 km/h 85 % 0 mm
07:15 -8.1 °C -10.1 °C 1023.6 hPa NW 1.6 km/h 14.5 km/h 85 % 0 mm
07:20 -8.1 °C -10.1 °C 1023.6 hPa NW 1.6 km/h 14.5 km/h 85 % 0 mm
07:21 -7.9 °C -10 °C 1024.6 hPa NW 3.2 km/h 8 km/h 86 % 0 mm
07:25 -7.9 °C -9.9 °C 1023.6 hPa NW 1.6 km/h 9.7 km/h 86 % 0 mm
07:30 -7.9 °C -9.9 °C 1023.6 hPa NW 1.6 km/h 9.7 km/h 86 % 0 mm
07:35 -7.9 °C -9.9 °C 1023.6 hPa NW 1.6 km/h 9.7 km/h 86 % 0 mm
07:36 -7.6 °C -9.4 °C 1024.9 hPa North 11.3 km/h 17.7 km/h 86 % 0 mm
07:40 -7.7 °C -9.6 °C 1023.6 hPa NNW 4.8 km/h 19.3 km/h 86 % 0 mm
07:45 -7.7 °C -9.6 °C 1023.6 hPa NNW 4.8 km/h 19.3 km/h 86 % 0 mm
07:50 -7.7 °C -9.6 °C 1023.6 hPa NNW 4.8 km/h 19.3 km/h 86 % 0 mm
07:51 -7.3 °C -9.4 °C 1024.9 hPa WNW 3.2 km/h 12.9 km/h 85 % 0 mm
07:55 -7.3 °C -9.4 °C 1023.9 hPa NNW 4.8 km/h 16.1 km/h 85 % 0 mm
08:00 -7.3 °C -9.4 °C 1023.9 hPa NNW 4.8 km/h 16.1 km/h 85 % 0 mm
08:05 -7.3 °C -9.4 °C 1023.9 hPa NNW 4.8 km/h 16.1 km/h 85 % 0 mm
08:06 -6.9 °C -8.9 °C 1024.9 hPa West 1.6 km/h 12.9 km/h 84 % 0 mm
08:10 -6.9 °C -9 °C 1023.9 hPa NW 3.2 km/h 14.5 km/h 85 % 0 mm
08:15 -6.9 °C -9 °C 1023.9 hPa NW 3.2 km/h 14.5 km/h 85 % 0 mm
08:20 -6.9 °C -9 °C 1023.9 hPa NW 3.2 km/h 14.5 km/h 85 % 0 mm
08:21 -6.6 °C -8.9 °C 1024.9 hPa NNW 17.7 km/h 17.7 km/h 84 % 0 mm
08:25 -6.6 °C -8.9 °C 1023.9 hPa NW 4.8 km/h 16.1 km/h 84 % 0 mm
08:30 -6.6 °C -8.9 °C 1023.9 hPa NW 4.8 km/h 16.1 km/h 84 % 0 mm
08:35 -6.6 °C -8.9 °C 1023.9 hPa NW 4.8 km/h 16.1 km/h 84 % 0 mm
08:36 -6.3 °C -8.9 °C 1024.9 hPa NW 1.6 km/h 17.7 km/h 83 % 0 mm
08:40 -6.3 °C -8.7 °C 1023.9 hPa NW 8 km/h 19.3 km/h 83 % 0 mm
08:45 -6.3 °C -8.7 °C 1023.9 hPa NW 8 km/h 19.3 km/h 83 % 0 mm
08:50 -6.3 °C -8.7 °C 1023.9 hPa NW 8 km/h 19.3 km/h 83 % 0 mm
08:51 -5.8 °C -8.3 °C 1024.9 hPa WNW 4.8 km/h 14.5 km/h 82 % 0 mm
08:55 -5.9 °C -8.5 °C 1023.9 hPa NW 6.4 km/h 22.5 km/h 82 % 0 mm
09:00 -5.9 °C -8.5 °C 1023.9 hPa NW 6.4 km/h 22.5 km/h 82 % 0 mm
09:05 -5.9 °C -8.5 °C 1023.9 hPa NW 6.4 km/h 22.5 km/h 82 % 0 mm
09:06 -5.6 °C -8.3 °C 1024.9 hPa NNW 3.2 km/h 16.1 km/h 81 % 0 mm
09:10 -5.6 °C -8.3 °C 1023.9 hPa NNW 6.4 km/h 17.7 km/h 81 % 0 mm
09:15 -5.6 °C -8.3 °C 1023.9 hPa NNW 6.4 km/h 17.7 km/h 81 % 0 mm
09:20 -5.6 °C -8.3 °C 1023.9 hPa NNW 6.4 km/h 17.7 km/h 81 % 0 mm
09:21 -5.2 °C -8.3 °C 1024.9 hPa WNW 3.2 km/h 16.1 km/h 80 % 0 mm
09:25 -5.3 °C -8.2 °C 1023.9 hPa NW 8 km/h 17.7 km/h 80 % 0 mm
09:30 -5.3 °C -8.2 °C 1023.9 hPa NW 8 km/h 17.7 km/h 80 % 0 mm
09:35 -5.3 °C -8.2 °C 1023.9 hPa NW 8 km/h 17.7 km/h 80 % 0 mm
09:36 -4.7 °C -7.8 °C 1024.9 hPa NW 3.2 km/h 14.5 km/h 78 % 0 mm
09:40 -4.8 °C -7.9 °C 1023.9 hPa NW 6.4 km/h 22.5 km/h 79 % 0 mm
09:45 -4.8 °C -7.9 °C 1023.9 hPa NW 6.4 km/h 22.5 km/h 79 % 0 mm
09:50 -4.8 °C -7.9 °C 1023.9 hPa NW 6.4 km/h 22.5 km/h 79 % 0 mm
09:51 -4.3 °C -7.8 °C 1024.9 hPa WNW 3.2 km/h 16.1 km/h 77 % 0 mm
09:55 -4.4 °C -7.7 °C 1023.9 hPa NW 6.4 km/h 17.7 km/h 78 % 0 mm
10:00 -4.4 °C -7.7 °C 1023.9 hPa NW 6.4 km/h 17.7 km/h 78 % 0 mm
10:05 -4.4 °C -7.7 °C 1023.9 hPa NW 6.4 km/h 17.7 km/h 78 % 0 mm
10:07 -3.8 °C -7.2 °C 1024.9 hPa West 6.4 km/h 14.5 km/h 76 % 0 mm
10:10 -4 °C -7.6 °C 1023.9 hPa NNW 6.4 km/h 19.3 km/h 76 % 0 mm
10:15 -4 °C -7.6 °C 1023.9 hPa NNW 6.4 km/h 19.3 km/h 76 % 0 mm
10:20 -4 °C -7.6 °C 1023.9 hPa NNW 6.4 km/h 19.3 km/h 76 % 0 mm
10:22 -3.4 °C -7.8 °C 1024.9 hPa NW 6.4 km/h 14.5 km/h 73 % 0 mm
10:25 -3.6 °C -7.5 °C 1023.9 hPa NW 8 km/h 17.7 km/h 74 % 0 mm
10:30 -3.6 °C -7.5 °C 1023.9 hPa NW 8 km/h 17.7 km/h 74 % 0 mm
10:35 -3.6 °C -7.5 °C 1023.9 hPa NW 8 km/h 17.7 km/h 74 % 0 mm
10:37 -2.9 °C -7.2 °C 1024.6 hPa WNW 6.4 km/h 14.5 km/h 72 % 0 mm
10:40 -2.9 °C -7.3 °C 1023.9 hPa NNW 6.4 km/h 17.7 km/h 72 % 0 mm
10:45 -2.9 °C -7.3 °C 1023.9 hPa NNW 6.4 km/h 17.7 km/h 72 % 0 mm
10:50 -2.9 °C -7.3 °C 1023.9 hPa NNW 6.4 km/h 17.7 km/h 72 % 0 mm
10:52 -2.3 °C -6.7 °C 1024.9 hPa WSW 11.3 km/h 14.5 km/h 71 % 0 mm
10:55 -2.3 °C -6.9 °C 1023.9 hPa WNW 8 km/h 8 km/h 71 % 0 mm
11:00 -2.2 °C -6.9 °C 1023.9 hPa NW 6.4 km/h 9.7 km/h 70 % 0 mm
11:05 -2.3 °C -7.1 °C 1023.9 hPa NW 6.4 km/h 6.4 km/h 70 % 0 mm
11:07 -2.2 °C -6.7 °C 1024.6 hPa NW 3.2 km/h 14.5 km/h 71 % 0 mm
11:10 -2.3 °C -6.8 °C 1023.9 hPa NW 6.4 km/h 11.3 km/h 71 % 0 mm
11:15 -2.3 °C -7.1 °C 1023.9 hPa NW 6.4 km/h 19.3 km/h 70 % 0 mm
11:20 -2.3 °C -7.1 °C 1023.9 hPa NW 6.4 km/h 19.3 km/h 70 % 0 mm
11:22 -2.1 °C -7.2 °C 1024.6 hPa NNW 3.2 km/h 17.7 km/h 69 % 0 mm
11:25 -2.3 °C -7.1 °C 1023.9 hPa NW 6.4 km/h 19.3 km/h 70 % 0 mm
11:30 -1.8 °C -6.4 °C 1023.9 hPa WNW 4.8 km/h 19.3 km/h 71 % 0 mm
11:35 -1.8 °C -6.4 °C 1023.9 hPa WNW 4.8 km/h 19.3 km/h 71 % 0 mm
11:37 -2.2 °C -7.2 °C 1024.6 hPa NW 6.4 km/h 16.1 km/h 69 % 0 mm
11:40 -2.1 °C -7 °C 1023.6 hPa NNW 6.4 km/h 19.3 km/h 69 % 0 mm
11:45 -2.1 °C -7 °C 1023.6 hPa NNW 6.4 km/h 19.3 km/h 69 % 0 mm
11:50 -2.1 °C -7 °C 1023.6 hPa NNW 6.4 km/h 19.3 km/h 69 % 0 mm
11:52 -1.3 °C -6.7 °C 1024.3 hPa WNW 4.8 km/h 9.7 km/h 68 % 0 mm
11:55 -1.5 °C -6.4 °C 1023.2 hPa West 6.4 km/h 16.1 km/h 69 % 0 mm
12:00 -1.5 °C -6.4 °C 1023.2 hPa West 6.4 km/h 16.1 km/h 69 % 0 mm
12:05 -1.5 °C -6.4 °C 1023.2 hPa West 6.4 km/h 16.1 km/h 69 % 0 mm
12:07 -1.4 °C -6.7 °C 1024.3 hPa NW 3.2 km/h 17.7 km/h 67 % 0 mm
12:10 -1.5 °C -6.4 °C 1022.9 hPa NNW 4.8 km/h 17.7 km/h 69 % 0 mm
12:15 -1.5 °C -6.4 °C 1022.9 hPa NNW 4.8 km/h 17.7 km/h 69 % 0 mm
12:20 -1.5 °C -6.4 °C 1022.9 hPa NNW 4.8 km/h 17.7 km/h 69 % 0 mm
12:22 -1.2 °C -6.7 °C 1023.9 hPa NW 6.4 km/h 9.7 km/h 68 % 0 mm
12:25 -1.5 °C -6.4 °C 1022.9 hPa NNW 4.8 km/h 17.7 km/h 69 % 0 mm
12:30 -1.3 °C -7.1 °C 1022.9 hPa NW 6.4 km/h 16.1 km/h 65 % 0 mm
12:35 -1.3 °C -7.1 °C 1022.9 hPa NW 6.4 km/h 16.1 km/h 65 % 0 mm
12:37 -0.9 °C -6.1 °C 1023.6 hPa NNW 6.4 km/h 12.9 km/h 69 % 0 mm
12:40 -1.3 °C -7.1 °C 1022.9 hPa NW 6.4 km/h 16.1 km/h 65 % 0 mm
12:45 -1.3 °C -6.7 °C 1022.6 hPa NW 6.4 km/h 19.3 km/h 67 % 0 mm
12:50 -1.3 °C -6.7 °C 1022.6 hPa NW 6.4 km/h 19.3 km/h 67 % 0 mm
12:52 -0.7 °C -6.1 °C 1023.6 hPa West 4.8 km/h 8 km/h 66 % 0 mm
12:55 -1.3 °C -6.7 °C 1022.6 hPa NW 6.4 km/h 19.3 km/h 67 % 0 mm
13:00 -1.2 °C -6.9 °C 1022.2 hPa NW 6.4 km/h 20.9 km/h 65 % 0 mm
13:05 -1.2 °C -6.9 °C 1022.2 hPa NW 6.4 km/h 20.9 km/h 65 % 0 mm
13:07 -0.9 °C -6.1 °C 1023.2 hPa NNW 8 km/h 14.5 km/h 68 % 0 mm
13:10 -1.2 °C -6.9 °C 1022.2 hPa NW 6.4 km/h 20.9 km/h 65 % 0 mm
13:15 -0.9 °C -6.2 °C 1022.2 hPa West 6.4 km/h 25.7 km/h 67 % 0 mm
13:20 -0.9 °C -6.2 °C 1022.2 hPa West 6.4 km/h 25.7 km/h 67 % 0 mm
13:22 -0.7 °C -6.7 °C 1022.9 hPa Calm   8 km/h 65 % 0 mm
13:25 -0.9 °C -6.4 °C 1021.9 hPa NNW 4.8 km/h 14.5 km/h 66 % 0 mm
13:30 -0.9 °C -6.4 °C 1021.9 hPa NNW 4.8 km/h 14.5 km/h 66 % 0 mm
13:35 -0.9 °C -6.4 °C 1021.9 hPa NNW 4.8 km/h 14.5 km/h 66 % 0 mm
13:37 0.1 °C -6.1 °C 1022.6 hPa WSW 3.2 km/h 9.7 km/h 65 % 0 mm
13:40 -0.4 °C -6.4 °C 1021.6 hPa NW 4.8 km/h 12.9 km/h 64 % 0 mm
13:45 -0.4 °C -6.4 °C 1021.6 hPa NW 4.8 km/h 12.9 km/h 64 % 0 mm
13:50 -0.4 °C -6.4 °C 1021.6 hPa NW 4.8 km/h 12.9 km/h 64 % 0 mm
13:52 0 °C -6.1 °C 1022.2 hPa WNW 4.8 km/h 8 km/h 64 % 0 mm
13:55 -0.3 °C -6.2 °C 1021.2 hPa NNW 4.8 km/h 14.5 km/h 64 % 0 mm
14:00 -0.3 °C -6.2 °C 1021.2 hPa NNW 4.8 km/h 14.5 km/h 64 % 0 mm
14:05 -0.3 °C -6.2 °C 1021.2 hPa NNW 4.8 km/h 14.5 km/h 64 % 0 mm
14:07 -0.1 °C -6.7 °C 1022.2 hPa North 6.4 km/h 9.7 km/h 63 % 0 mm
14:10 -0.3 °C -6.2 °C 1021.2 hPa NNW 4.8 km/h 14.5 km/h 64 % 0 mm
14:15 0 °C -6.4 °C 1021.2 hPa WNW 3.2 km/h 9.7 km/h 62 % 0 mm
14:20 0 °C -6.4 °C 1021.2 hPa WNW 3.2 km/h 9.7 km/h 62 % 0 mm
14:22 -0.3 °C -7.2 °C 1021.9 hPa West 1.6 km/h 12.9 km/h 60 % 0 mm
14:25 0 °C -6.4 °C 1021.2 hPa WNW 3.2 km/h 9.7 km/h 62 % 0 mm
14:30 -0.3 °C -6.9 °C 1020.9 hPa North 4.8 km/h 14.5 km/h 61 % 0 mm
14:35 -0.3 °C -6.9 °C 1020.9 hPa North 4.8 km/h 14.5 km/h 61 % 0 mm
14:37 -0.2 °C -6.7 °C 1021.9 hPa NNW 6.4 km/h 14.5 km/h 62 % 0 mm
14:40 -0.3 °C -6.9 °C 1020.9 hPa North 4.8 km/h 14.5 km/h 61 % 0 mm
14:45 -0.3 °C -7.2 °C 1020.9 hPa WNW 4.8 km/h 16.1 km/h 60 % 0 mm
14:50 -0.3 °C -7.2 °C 1020.9 hPa WNW 4.8 km/h 16.1 km/h 60 % 0 mm
14:52 0.1 °C -6.1 °C 1021.9 hPa WNW 1.6 km/h 9.7 km/h 63 % 0 mm
14:55 -0.1 °C -6.5 °C 1020.9 hPa NNW 4.8 km/h 14.5 km/h 62 % 0 mm
15:00 -0.1 °C -6.5 °C 1020.9 hPa NNW 4.8 km/h 14.5 km/h 62 % 0 mm
15:05 -0.1 °C -6.5 °C 1020.9 hPa NNW 4.8 km/h 14.5 km/h 62 % 0 mm
15:07 -0.2 °C -6.7 °C 1021.9 hPa NW 1.6 km/h 6.4 km/h 63 % 0 mm
15:10 -0.1 °C -6.4 °C 1020.9 hPa NW 3.2 km/h 12.9 km/h 62 % 0 mm
15:15 -0.1 °C -6.4 °C 1020.9 hPa NW 3.2 km/h 12.9 km/h 62 % 0 mm
15:20 -0.1 °C -6.4 °C 1020.9 hPa NW 3.2 km/h 12.9 km/h 62 % 0 mm
15:22 -0.1 °C -6.7 °C 1021.6 hPa Calm   8 km/h 63 % 0 mm
15:25 -0.1 °C -6.1 °C 1020.5 hPa NW 3.2 km/h 12.9 km/h 64 % 0 mm
15:30 -0.1 °C -6.1 °C 1020.5 hPa NW 3.2 km/h 12.9 km/h 64 % 0 mm
15:35 -0.1 °C -6.1 °C 1020.5 hPa NW 3.2 km/h 12.9 km/h 64 % 0 mm
15:37 -0.1 °C -6.1 °C 1021.6 hPa NW 4.8 km/h 8 km/h 65 % 0 mm
15:40 -0.3 °C -6.5 °C 1020.5 hPa NNW 1.6 km/h 8 km/h 63 % 0 mm
15:45 -0.3 °C -6.5 °C 1020.5 hPa NNW 1.6 km/h 8 km/h 63 % 0 mm
15:50 -0.3 °C -6.5 °C 1020.5 hPa NNW 1.6 km/h 8 km/h 63 % 0 mm
15:52 -0.2 °C -6.1 °C 1021.2 hPa NW 6.4 km/h 11.3 km/h 64 % 0 mm
15:55 -0.3 °C -6.5 °C 1020.5 hPa NNW 1.6 km/h 8 km/h 63 % 0 mm
16:00 -0.3 °C -6.4 °C 1020.2 hPa NNE 3.2 km/h 9.7 km/h 63 % 0 mm
16:05 -0.3 °C -6.4 °C 1020.2 hPa NNE 3.2 km/h 9.7 km/h 63 % 0 mm
16:07 -0.1 °C -6.7 °C 1021.2 hPa ENE 4.8 km/h 12.9 km/h 63 % 0 mm
16:10 -0.3 °C -6.4 °C 1020.2 hPa NNE 3.2 km/h 9.7 km/h 63 % 0 mm
16:15 -0.1 °C -6.3 °C 1020.2 hPa NNW 3.2 km/h 12.9 km/h 63 % 0 mm
16:20 -0.1 °C -6.3 °C 1020.2 hPa NNW 3.2 km/h 12.9 km/h 63 % 0 mm
16:22 0.5 °C -6.1 °C 1020.9 hPa Calm   8 km/h 62 % 0 mm
16:25 -0.1 °C -6.3 °C 1020.2 hPa NNW 3.2 km/h 12.9 km/h 63 % 0 mm
16:30 0.4 °C -5.8 °C 1019.9 hPa NW 1.6 km/h 11.3 km/h 63 % 0 mm
16:35 0.4 °C -5.8 °C 1019.9 hPa NW 1.6 km/h 11.3 km/h 63 % 0 mm
16:37 0.7 °C -6.1 °C 1020.9 hPa Calm   6.4 km/h 61 % 0 mm
16:40 0.7 °C -6 °C 1019.9 hPa NNW 1.6 km/h 8 km/h 61 % 0 mm
16:45 0.7 °C -6 °C 1019.9 hPa NNW 1.6 km/h 8 km/h 61 % 0 mm
16:50 0.7 °C -6 °C 1019.9 hPa NNW 1.6 km/h 8 km/h 61 % 0 mm
16:52 0.4 °C -6.7 °C 1020.9 hPa NW 3.2 km/h 8 km/h 61 % 0 mm
16:55 0.5 °C -5.9 °C 1019.5 hPa Calm   8 km/h 62 % 0 mm
17:00 0.5 °C -5.9 °C 1019.5 hPa Calm   8 km/h 62 % 0 mm
17:05 0.5 °C -5.9 °C 1019.5 hPa Calm   8 km/h 62 % 0 mm
17:07 0.2 °C -6.1 °C 1020.9 hPa NW 3.2 km/h 3.2 km/h 63 % 0 mm
17:10 0.2 °C -6 °C 1019.5 hPa NNW 1.6 km/h 6.4 km/h 63 % 0 mm
17:15 0.2 °C -6 °C 1019.5 hPa NNW 1.6 km/h 6.4 km/h 63 % 0 mm
17:20 0.2 °C -6 °C 1019.5 hPa NNW 1.6 km/h 6.4 km/h 63 % 0 mm
17:22 0 °C -6.1 °C 1020.9 hPa NW 8 km/h 8 km/h 63 % 0 mm
17:25 0.2 °C -6 °C 1019.5 hPa NNW 1.6 km/h 6.4 km/h 63 % 0 mm
17:30 0.1 °C -6.1 °C 1019.5 hPa NNW 1.6 km/h 9.7 km/h 63 % 0 mm
17:35 0.1 °C -6.1 °C 1019.5 hPa NNW 1.6 km/h 9.7 km/h 63 % 0 mm
17:37 -0.1 °C -6.1 °C 1020.9 hPa Calm   6.4 km/h 64 % 0 mm
17:40 0.1 °C -6.1 °C 1019.5 hPa NNW 1.6 km/h 9.7 km/h 63 % 0 mm
17:45 -0.1 °C -6.1 °C 1019.5 hPa NNW 1.6 km/h 8 km/h 64 % 0 mm
17:50 -0.1 °C -6.1 °C 1019.5 hPa NNW 1.6 km/h 8 km/h 64 % 0 mm
17:52 -0.3 °C -6.7 °C 1020.9 hPa NW 1.6 km/h 4.8 km/h 64 % 0 mm
17:55 -0.1 °C -6.1 °C 1019.5 hPa NNW 1.6 km/h 8 km/h 64 % 0 mm
18:00 -0.3 °C -6.2 °C 1019.9 hPa NNW 1.6 km/h 6.4 km/h 64 % 0 mm
18:05 -0.3 °C -6.2 °C 1019.9 hPa NNW 1.6 km/h 6.4 km/h 64 % 0 mm
18:07 -0.6 °C -6.7 °C 1020.9 hPa Calm   3.2 km/h 64 % 0 mm
18:10 -0.3 °C -6.2 °C 1019.9 hPa NNW 1.6 km/h 6.4 km/h 64 % 0 mm
18:15 -0.5 °C -6.4 °C 1019.5 hPa NNW 1.6 km/h 8 km/h 64 % 0 mm
18:20 -0.5 °C -6.4 °C 1019.5 hPa NNW 1.6 km/h 8 km/h 64 % 0 mm
18:22 -0.8 °C -6.7 °C 1020.9 hPa Calm   4.8 km/h 64 % 0 mm
18:25 -0.7 °C -6.7 °C 1019.5 hPa Calm   4.8 km/h 64 % 0 mm
18:30 -0.7 °C -6.7 °C 1019.5 hPa Calm   4.8 km/h 64 % 0 mm
18:35 -0.7 °C -6.7 °C 1019.5 hPa Calm   4.8 km/h 64 % 0 mm
18:37 -1 °C -6.7 °C 1020.9 hPa Calm   1.6 km/h 65 % 0 mm
18:40 -0.9 °C -6.6 °C 1019.9 hPa Calm   4.8 km/h 65 % 0 mm
18:45 -0.9 °C -6.6 °C 1019.9 hPa Calm   4.8 km/h 65 % 0 mm
18:50 -0.9 °C -6.6 °C 1019.9 hPa Calm   4.8 km/h 65 % 0 mm
18:52 -1.2 °C -6.7 °C 1020.9 hPa Calm     66 % 0 mm
18:55 -1.2 °C -6.9 °C 1019.9 hPa Calm     65 % 0 mm
19:00 -1.2 °C -6.9 °C 1019.9 hPa Calm     65 % 0 mm
19:05 -1.2 °C -6.9 °C 1019.9 hPa Calm     65 % 0 mm
19:07 -1.6 °C -7.2 °C 1020.9 hPa Calm     66 % 0 mm
19:10 -1.2 °C -6.9 °C 1019.9 hPa Calm     65 % 0 mm
19:15 -1.4 °C -6.9 °C 1019.5 hPa Calm     66 % 0 mm
19:20 -1.4 °C -6.9 °C 1019.5 hPa Calm     66 % 0 mm
19:22 -1.8 °C -7.2 °C 1020.9 hPa Calm     67 % 0 mm
19:25 -1.4 °C -6.9 °C 1019.5 hPa Calm     66 % 0 mm
19:30 -1.8 °C -7.3 °C 1019.5 hPa Calm     66 % 0 mm
19:35 -1.8 °C -7.3 °C 1019.5 hPa Calm     66 % 0 mm
19:37 -2.2 °C -7.2 °C 1020.9 hPa Calm     68 % 0 mm
19:40 -1.8 °C -7.3 °C 1019.5 hPa Calm     66 % 0 mm
19:45 -2.1 °C -7.4 °C 1019.5 hPa Calm     67 % 0 mm
19:50 -2.1 °C -7.4 °C 1019.5 hPa Calm     67 % 0 mm
19:52 -2.5 °C -7.2 °C 1020.9 hPa Calm   3.2 km/h 71 % 0 mm
19:55 -2.4 °C -7.2 °C 1019.9 hPa Calm     70 % 0 mm
20:00 -2.4 °C -7.2 °C 1019.9 hPa Calm     70 % 0 mm
20:05 -2.4 °C -7.2 °C 1019.9 hPa Calm     70 % 0 mm
20:07 -2.6 °C -7.2 °C 1020.9 hPa Calm   4.8 km/h 72 % 0 mm
20:10 -2.6 °C -6.9 °C 1019.9 hPa Calm   4.8 km/h 72 % 0 mm
20:15 -2.6 °C -6.9 °C 1019.9 hPa Calm   4.8 km/h 72 % 0 mm
20:20 -2.6 °C -6.9 °C 1019.9 hPa Calm   4.8 km/h 72 % 0 mm
20:22 -2.7 °C -6.7 °C 1020.9 hPa Calm     73 % 0 mm
20:25 -2.7 °C -6.9 °C 1019.9 hPa Calm     73 % 0 mm
20:30 -2.7 °C -6.9 °C 1019.9 hPa Calm     73 % 0 mm
20:35 -2.7 °C -6.9 °C 1019.9 hPa Calm     73 % 0 mm
20:37 -2.9 °C -7.2 °C 1020.9 hPa Calm     73 % 0 mm
20:40 -2.8 °C -7 °C 1019.5 hPa Calm     73 % 0 mm
20:45 -2.8 °C -7 °C 1019.5 hPa Calm     73 % 0 mm
20:50 -2.8 °C -7 °C 1019.5 hPa Calm     73 % 0 mm
20:52 -3.1 °C -7.2 °C 1020.5 hPa Calm     74 % 0 mm
20:55 -2.8 °C -7 °C 1019.5 hPa Calm     73 % 0 mm
21:00 -3.1 °C -7 °C 1019.5 hPa Calm     74 % 0 mm
21:05 -3.1 °C -7 °C 1019.5 hPa Calm     74 % 0 mm
21:07 -3.4 °C -7.2 °C 1020.5 hPa Calm     74 % 0 mm
21:10 -3.1 °C -7 °C 1019.5 hPa Calm     74 % 0 mm
21:15 -3.3 °C -7.2 °C 1019.5 hPa Calm     74 % 0 mm
21:20 -3.3 °C -7.2 °C 1019.5 hPa Calm     74 % 0 mm
21:22 -3.7 °C -7.2 °C 1020.5 hPa Calm     76 % 0 mm
21:25 -3.3 °C -7.2 °C 1019.5 hPa Calm     74 % 0 mm
21:30 -3.6 °C -7.3 °C 1019.2 hPa Calm     75 % 0 mm
21:35 -3.6 °C -7.3 °C 1019.2 hPa Calm     75 % 0 mm
21:38 -3.9 °C -7.2 °C 1020.2 hPa Calm     77 % 0 mm
21:40 -3.8 °C -7.4 °C 1019.2 hPa Calm     76 % 0 mm
21:45 -3.8 °C -7.4 °C 1019.2 hPa Calm     76 % 0 mm
21:50 -3.8 °C -7.4 °C 1019.2 hPa Calm     76 % 0 mm
21:53 -4.1 °C -7.2 °C 1020.2 hPa Calm     78 % 0 mm
21:55 -4 °C -7.4 °C 1019.2 hPa Calm     77 % 0 mm
22:00 -4 °C -7.4 °C 1019.2 hPa Calm     77 % 0 mm
22:05 -4 °C -7.4 °C 1019.2 hPa Calm     77 % 0 mm
22:08 -4.2 °C -7.2 °C 1020.2 hPa Calm     78 % 0 mm
22:10 -4.2 °C -7.4 °C 1019.2 hPa Calm     78 % 0 mm
22:15 -4.2 °C -7.4 °C 1019.2 hPa Calm     78 % 0 mm
22:20 -4.2 °C -7.4 °C 1019.2 hPa Calm     78 % 0 mm
22:23 -4.4 °C -7.8 °C 1020.2 hPa Calm     78 % 0 mm
22:25 -4.2 °C -7.4 °C 1019.2 hPa Calm     78 % 0 mm
22:30 -4.3 °C -7.5 °C 1019.2 hPa Calm     78 % 0 mm
22:35 -4.3 °C -7.5 °C 1019.2 hPa Calm     78 % 0 mm
22:38 -4.6 °C -7.8 °C 1019.9 hPa Calm     79 % 0 mm
22:40 -4.3 °C -7.5 °C 1019.2 hPa Calm     78 % 0 mm
22:45 -4.5 °C -7.6 °C 1018.8 hPa Calm     79 % 0 mm
22:50 -4.5 °C -7.6 °C 1018.8 hPa Calm     79 % 0 mm
22:53 -4.7 °C -7.8 °C 1019.9 hPa Calm     79 % 0 mm
22:55 -4.5 °C -7.6 °C 1018.8 hPa Calm     79 % 0 mm
23:00 -4.6 °C -7.7 °C 1018.8 hPa Calm     79 % 0 mm
23:05 -4.6 °C -7.7 °C 1018.8 hPa Calm     79 % 0 mm
23:08 -4.8 °C -7.8 °C 1019.9 hPa Calm     80 % 0 mm
23:10 -4.6 °C -7.7 °C 1018.8 hPa Calm     79 % 0 mm
23:15 -4.8 °C -7.8 °C 1018.8 hPa Calm     79 % 0 mm
23:20 -4.8 °C -7.8 °C 1018.8 hPa Calm     79 % 0 mm
23:23 -4.9 °C -7.8 °C 1019.5 hPa Calm     81 % 0 mm
23:25 -4.9 °C -7.7 °C 1018.8 hPa Calm     81 % 0 mm
23:30 -4.9 °C -7.7 °C 1018.8 hPa Calm     81 % 0 mm
23:35 -4.9 °C -7.7 °C 1018.8 hPa Calm     81 % 0 mm
23:38 -5 °C -7.8 °C 1019.2 hPa Calm     81 % 0 mm
23:40 -5 °C -7.8 °C 1018.5 hPa Calm     81 % 0 mm
23:45 -5 °C -7.8 °C 1018.5 hPa Calm     81 % 0 mm
23:50 -5 °C -7.8 °C 1018.5 hPa Calm     81 % 0 mm
23:53 -5.1 °C -7.8 °C 1019.5 hPa Calm     82 % 0 mm
23:55 -5.1 °C -7.7 °C 1018.5 hPa Calm     82 % 0 mm
Des Moines Weather and Climate
Compliments of Weather Underground - 4.5 mb

Script developed by  Jim McMurry - jmcmurry@mwt.net Adapted for the template by  Wim van der Kuil - Leuven-Template.eu

You find our weather info also at:

Weather Underground

Equipment we use:

Weather-station
Davis VP2 Plus

Weather-program
Davis Weatherlink.Com

Weather-server
iMac (Retina 4K, 21.5-inch, Late 2015)

Provider
Hostmonster.com

Davis VP2 Plus

Davis Weatherlink.Com

iMac (Retina 4K, 21.5-inch, Late 2015)

Hostmonster.com